createdAt,value
2023-04-11T00:03:00.080Z,8.63
2023-04-11T00:08:01.915Z,8.35
2023-04-11T00:13:03.520Z,8.25
2023-04-11T00:18:06.655Z,8.07
2023-04-11T00:23:08.800Z,8.10
2023-04-11T00:28:10.810Z,8.09
2023-04-11T00:33:12.324Z,8.08
2023-04-11T00:38:13.791Z,7.99
2023-04-11T00:43:15.427Z,7.83
2023-04-11T00:48:17.677Z,7.89
2023-04-11T00:53:19.134Z,7.86
2023-04-11T00:58:20.644Z,7.91
2023-04-11T01:03:22.945Z,7.97
2023-04-11T01:08:24.865Z,7.95
2023-04-11T01:13:26.508Z,8.06
2023-04-11T01:18:28.315Z,8.10
2023-04-11T01:23:29.901Z,7.86
2023-04-11T01:28:31.367Z,7.69
2023-04-11T01:33:32.882Z,7.72
2023-04-11T01:38:34.323Z,7.75
2023-04-11T01:43:36.020Z,7.63
2023-04-11T01:48:38.246Z,7.50
2023-04-11T01:53:39.857Z,7.44
2023-04-11T01:58:41.786Z,7.46
2023-04-11T02:03:43.324Z,7.33
2023-04-11T02:08:44.999Z,7.35
2023-04-11T02:13:46.593Z,7.36
2023-04-11T02:18:48.043Z,7.42
2023-04-11T02:23:49.472Z,7.36
2023-04-11T02:28:50.882Z,7.40
2023-04-11T02:33:52.376Z,7.44
2023-04-11T02:38:54.416Z,7.39
2023-04-11T02:43:56.044Z,7.20
2023-04-11T02:48:57.831Z,7.27
2023-04-11T02:53:59.536Z,7.29
2023-04-11T02:59:01.015Z,7.32
2023-04-11T03:04:02.589Z,7.32
2023-04-11T03:09:04.186Z,7.39
2023-04-11T03:14:05.642Z,7.33
2023-04-11T03:19:07.081Z,7.31
2023-04-11T03:24:08.658Z,7.30
2023-04-11T03:29:10.320Z,7.34
2023-04-11T03:34:11.807Z,7.32
2023-04-11T03:39:13.211Z,7.23
2023-04-11T03:44:14.758Z,7.20
2023-04-11T03:49:16.157Z,7.19
2023-04-11T03:54:17.956Z,7.09
2023-04-11T03:59:19.362Z,7.11
2023-04-11T04:04:21.040Z,7.13
2023-04-11T04:09:24.053Z,7.22
2023-04-11T04:14:25.539Z,7.18
2023-04-11T04:19:26.987Z,7.10
2023-04-11T04:24:29.546Z,7.11
2023-04-11T04:29:37.975Z,6.90
2023-04-11T04:34:49.317Z,7.05
2023-04-11T04:39:55.263Z,7.13
2023-04-11T04:44:57.129Z,7.33
2023-04-11T04:49:58.925Z,7.26
2023-04-11T04:55:01.245Z,7.29
2023-04-11T05:00:06.788Z,7.35
2023-04-11T05:05:09.526Z,7.46
2023-04-11T05:10:10.978Z,7.46
2023-04-11T05:15:12.603Z,7.55
2023-04-11T05:20:15.481Z,7.50
2023-04-11T05:25:17.966Z,7.42
2023-04-11T05:30:19.454Z,7.54
2023-04-11T05:35:21.442Z,7.42
2023-04-11T05:40:22.904Z,7.58
2023-04-11T05:45:24.327Z,7.66
2023-04-11T05:50:26.159Z,7.65
2023-04-11T05:55:27.674Z,7.73
2023-04-11T06:00:31.133Z,7.72
2023-04-11T06:05:33.034Z,7.90
2023-04-11T06:10:34.943Z,7.94
2023-04-11T06:15:36.424Z,8.13
2023-04-11T06:20:37.903Z,8.22
2023-04-11T06:25:39.338Z,8.30
2023-04-11T06:30:41.440Z,8.23
2023-04-11T06:35:42.848Z,8.27
2023-04-11T06:40:44.264Z,8.40
2023-04-11T06:45:47.020Z,8.52
2023-04-11T06:50:48.555Z,8.67
2023-04-11T06:55:50.016Z,8.65
2023-04-11T07:00:51.500Z,8.66
2023-04-11T07:05:53.129Z,8.70
2023-04-11T07:10:54.558Z,8.63
2023-04-11T07:15:56.036Z,8.73
2023-04-11T07:20:57.583Z,8.62
2023-04-11T07:25:59.005Z,8.71
2023-04-11T07:31:00.676Z,8.64
2023-04-11T07:36:02.226Z,8.95
2023-04-11T07:41:05.221Z,8.98
2023-04-11T07:46:06.902Z,9.17
2023-04-11T07:51:08.520Z,9.16
2023-04-11T07:56:10.751Z,9.44
2023-04-11T08:01:23.903Z,9.76
2023-04-11T08:06:26.486Z,9.71
2023-04-11T08:11:27.938Z,9.97
2023-04-11T08:16:29.450Z,10.15
2023-04-11T08:21:31.269Z,10.20
2023-04-11T08:26:32.705Z,10.12
2023-04-11T08:31:34.132Z,10.26
2023-04-11T08:36:35.638Z,10.33
2023-04-11T08:41:38.603Z,10.56
2023-04-11T08:46:44.264Z,10.74
2023-04-11T08:51:47.067Z,10.84
2023-04-11T08:56:48.480Z,10.80
2023-04-11T09:01:51.098Z,11.16
2023-04-11T09:07:00.440Z,11.31
2023-04-11T09:12:03.926Z,11.61
2023-04-11T09:17:17.085Z,11.69
2023-04-11T09:22:18.623Z,11.97
2023-04-11T09:27:24.395Z,12.23
2023-04-11T09:32:31.072Z,12.48
2023-04-11T09:37:55.920Z,12.60
2023-04-11T09:42:59.646Z,12.76
2023-04-11T09:48:01.673Z,12.97
2023-04-11T09:53:03.637Z,13.26
2023-04-11T09:58:05.889Z,13.55
2023-04-11T10:03:07.492Z,13.78
2023-04-11T10:08:17.282Z,13.91
2023-04-11T10:13:36.780Z,13.89
2023-04-11T10:18:58.938Z,13.89
2023-04-11T10:24:29.632Z,13.42
2023-04-11T10:29:33.178Z,13.44
2023-04-11T10:34:38.778Z,13.42
2023-04-11T10:39:57.779Z,13.49
2023-04-11T10:45:18.992Z,13.59
2023-04-11T10:50:26.607Z,13.52
2023-04-11T10:55:29.593Z,13.71
2023-04-11T11:00:54.203Z,13.49
2023-04-11T11:06:04.183Z,13.49
2023-04-11T11:11:07.346Z,13.38
2023-04-11T11:16:11.070Z,13.21
2023-04-11T11:21:20.665Z,12.97
2023-04-11T11:26:44.371Z,12.26
2023-04-11T11:31:47.663Z,11.77
2023-04-11T11:36:49.293Z,11.40
2023-04-11T11:41:51.596Z,11.29
2023-04-11T11:47:04.745Z,11.16
2023-04-11T11:52:06.173Z,10.72
2023-04-11T11:57:07.726Z,10.90
2023-04-11T12:02:09.325Z,10.78
2023-04-11T12:07:11.741Z,10.75
2023-04-11T12:12:15.990Z,10.29
2023-04-11T12:17:17.439Z,10.34
2023-04-11T12:22:18.897Z,9.71
2023-04-11T12:27:20.386Z,9.67
2023-04-11T12:32:23.264Z,9.42
2023-04-11T12:37:24.715Z,9.59
2023-04-11T12:42:27.420Z,9.55
2023-04-11T12:47:29.050Z,9.74
2023-04-11T12:52:30.884Z,9.90
2023-04-11T12:57:32.320Z,10.02
2023-04-11T13:02:42.142Z,10.09
2023-04-11T13:07:45.361Z,10.23
2023-04-11T13:12:48.458Z,10.39
2023-04-11T13:17:50.269Z,10.43
2023-04-11T13:22:51.960Z,10.64
2023-04-11T13:27:53.434Z,11.12
2023-04-11T13:32:54.948Z,11.03
2023-04-11T13:37:56.397Z,11.15
2023-04-11T13:42:57.830Z,11.42
2023-04-11T13:47:59.446Z,11.36
2023-04-11T13:53:01.271Z,11.13
2023-04-11T13:58:02.756Z,10.97
2023-04-11T14:03:04.481Z,11.21
2023-04-11T14:08:06.594Z,11.17
2023-04-11T14:13:11.296Z,11.39
2023-04-11T14:18:13.017Z,11.11
2023-04-11T14:23:16.525Z,11.31
2023-04-11T14:28:18.390Z,11.00
2023-04-11T14:33:19.848Z,10.93
2023-04-11T14:38:21.276Z,10.96
2023-04-11T14:43:22.744Z,10.90
2023-04-11T14:48:27.596Z,11.00
2023-04-11T14:53:29.045Z,11.06
2023-04-11T14:58:30.775Z,11.22
2023-04-11T15:03:32.556Z,11.36
2023-04-11T15:08:34.178Z,11.37
2023-04-11T15:13:35.764Z,11.43
2023-04-11T15:18:37.192Z,11.58
2023-04-11T15:23:38.610Z,11.63
2023-04-11T15:28:40.384Z,11.50
2023-04-11T15:33:41.831Z,11.52
2023-04-11T15:38:45.060Z,11.56
2023-04-11T15:43:46.870Z,11.11
2023-04-11T15:48:48.348Z,10.92
2023-04-11T15:53:50.416Z,10.75
2023-04-11T15:58:51.840Z,10.31
2023-04-11T16:03:53.538Z,10.44
2023-04-11T16:08:55.418Z,10.75
2023-04-11T16:13:57.396Z,10.72
2023-04-11T16:18:59.118Z,10.64
2023-04-11T16:24:00.868Z,10.69
2023-04-11T16:29:03.371Z,10.62
2023-04-11T16:34:04.783Z,10.90
2023-04-11T16:39:06.353Z,10.87
2023-04-11T16:44:11.408Z,10.77
2023-04-11T16:49:13.116Z,10.64
2023-04-11T16:54:15.060Z,10.65
2023-04-11T16:59:16.612Z,10.67
2023-04-11T17:04:18.209Z,10.32
2023-04-11T17:09:19.699Z,10.20
2023-04-11T17:14:21.199Z,9.93
2023-04-11T17:19:23.734Z,10.09
2023-04-11T17:24:25.972Z,9.98
2023-04-11T17:29:28.400Z,9.95
2023-04-11T17:34:29.899Z,9.77
2023-04-11T17:39:31.380Z,9.75
2023-04-11T17:44:32.907Z,9.64
2023-04-11T17:49:34.382Z,9.58
2023-04-11T17:54:36.439Z,9.61
2023-04-11T17:59:37.875Z,9.74
2023-04-11T18:04:39.445Z,9.43
2023-04-11T18:09:42.325Z,9.50
2023-04-11T18:14:43.773Z,9.55
2023-04-11T18:19:45.350Z,9.43
2023-04-11T18:24:46.811Z,9.11
2023-04-11T18:29:51.674Z,9.01
2023-04-11T18:34:53.451Z,8.73
2023-04-11T18:39:55.116Z,8.93
2023-04-11T18:44:58.538Z,8.66
2023-04-11T18:50:00.112Z,8.38
2023-04-11T18:55:01.724Z,8.65
2023-04-11T19:00:17.363Z,8.73
2023-04-11T19:05:20.652Z,8.68
2023-04-11T19:10:22.341Z,8.84
2023-04-11T19:15:23.844Z,8.89
2023-04-11T19:20:26.743Z,8.45
2023-04-11T19:25:28.462Z,8.33
2023-04-11T19:30:29.949Z,8.51
2023-04-11T19:35:31.383Z,8.46
2023-04-11T19:40:34.479Z,8.32
2023-04-11T19:45:36.209Z,8.00
2023-04-11T19:50:37.896Z,8.24
2023-04-11T19:55:40.020Z,8.19
2023-04-11T20:00:41.866Z,8.11
2023-04-11T20:05:44.181Z,7.95
2023-04-11T20:10:45.608Z,7.63
2023-04-11T20:15:47.135Z,7.69
2023-04-11T20:20:48.541Z,7.55
2023-04-11T20:25:49.955Z,7.77
2023-04-11T20:30:51.986Z,7.46
2023-04-11T20:35:59.094Z,7.46
2023-04-11T20:41:03.724Z,7.44
2023-04-11T20:46:08.357Z,7.25
2023-04-11T20:51:09.868Z,7.34
2023-04-11T20:56:11.842Z,7.22
2023-04-11T21:01:13.587Z,7.15
2023-04-11T21:06:15.645Z,7.28
2023-04-11T21:11:17.103Z,7.36
2023-04-11T21:16:18.571Z,7.29
2023-04-11T21:21:20.058Z,7.19
2023-04-11T21:26:21.654Z,6.82
2023-04-11T21:31:23.093Z,6.83
2023-04-11T21:36:24.537Z,6.92
2023-04-11T21:41:26.013Z,6.95
2023-04-11T21:46:27.650Z,6.71
2023-04-11T21:51:29.098Z,6.90
2023-04-11T21:56:30.594Z,6.90
2023-04-11T22:01:32.115Z,6.84
2023-04-11T22:06:33.560Z,6.77
2023-04-11T22:11:34.995Z,6.79
2023-04-11T22:16:36.493Z,6.83
2023-04-11T22:21:38.275Z,6.71
2023-04-11T22:26:42.773Z,6.71
2023-04-11T22:31:45.291Z,6.73
2023-04-11T22:36:46.747Z,6.66
2023-04-11T22:41:50.518Z,6.68
2023-04-11T22:46:59.899Z,6.54
2023-04-11T22:52:02.106Z,6.62
2023-04-11T22:57:03.664Z,6.65
2023-04-11T23:02:05.650Z,6.66
2023-04-11T23:07:07.123Z,6.57
2023-04-11T23:12:09.090Z,6.62
2023-04-11T23:17:10.561Z,6.63
2023-04-11T23:22:12.424Z,6.48
2023-04-11T23:27:14.083Z,6.41
2023-04-11T23:32:15.693Z,6.31
2023-04-11T23:37:17.859Z,6.37
2023-04-11T23:42:19.266Z,6.32
2023-04-11T23:47:20.836Z,6.19
2023-04-11T23:52:22.418Z,6.19
2023-04-11T23:57:24.137Z,6.20
